Time;durP1;ratioP1;P1;durP2;ratioP2;P2;SDS_P1;SDS_P2;PMS_P1;PMS_P2;Temp;Humidity;BMP_temperature;BMP_pressure;BME280_temperature;BME280_humidity;BME280_pressure;Samples;Min_cycle;Max_cycle;Signal;HPM_P1;HPM_P2
2022/07/27 00:01:50;;;;;;;17.23;12.07;;;17.10;99.90;;;;;;4978091;28;20682;-84
2022/07/27 00:04:18;;;;;;;18.97;11.53;;;17.20;99.90;;;;;;4995031;28;20485;-84
2022/07/27 00:06:46;;;;;;;19.00;11.53;;;17.30;99.90;;;;;;4977623;28;20201;-83
2022/07/27 00:09:14;;;;;;;19.27;12.67;;;17.30;99.90;;;;;;4977456;28;20204;-84
2022/07/27 00:11:41;;;;;;;18.27;12.40;;;17.30;99.90;;;;;;4977707;28;20288;-82
2022/07/27 00:14:08;;;;;;;17.47;12.67;;;17.30;99.90;;;;;;4977533;28;20207;-82
2022/07/27 00:16:35;;;;;;;19.20;12.47;;;17.30;99.90;;;;;;4977676;28;20279;-83
2022/07/27 00:19:02;;;;;;;18.80;12.07;;;17.20;99.90;;;;;;4977211;28;20936;-82
2022/07/27 00:21:29;;;;;;;18.87;11.60;;;17.20;99.90;;;;;;4977451;28;20581;-83
2022/07/27 00:23:56;;;;;;;17.73;10.63;;;17.20;99.90;;;;;;4977507;28;20203;-83
2022/07/27 00:26:23;;;;;;;17.40;11.00;;;17.30;99.90;;;;;;4977540;28;20631;-83
2022/07/27 00:28:50;;;;;;;16.70;10.57;;;17.30;99.90;;;;;;4977118;28;20232;-82
2022/07/27 00:31:17;;;;;;;18.83;9.87;;;17.40;99.90;;;;;;4994666;28;20710;-82
2022/07/27 00:33:44;;;;;;;14.67;9.53;;;17.40;99.90;;;;;;4976868;28;20642;-84
2022/07/27 00:36:11;;;;;;;15.57;9.63;;;17.40;99.90;;;;;;4977343;28;20193;-83
2022/07/27 00:38:38;;;;;;;13.83;8.17;;;17.40;99.90;;;;;;4977429;28;20299;-84
2022/07/27 00:41:05;;;;;;;11.43;7.70;;;17.40;99.90;;;;;;4994340;28;20650;-82
2022/07/27 00:43:47;;;;;;;13.87;7.33;;;17.40;99.90;;;;;;4976774;28;20247;-83
2022/07/27 00:46:14;;;;;;;9.87;7.73;;;17.40;99.90;;;;;;4976666;28;20801;-84
2022/07/27 00:48:41;;;;;;;10.27;6.70;;;17.40;99.90;;;;;;4976813;28;20358;-84
2022/07/27 00:51:09;;;;;;;11.03;7.23;;;17.40;99.90;;;;;;4977127;28;20662;-84
2022/07/27 00:53:37;;;;;;;11.47;7.63;;;17.40;99.90;;;;;;4976536;28;20225;-85
2022/07/27 00:56:04;;;;;;;13.17;7.37;;;17.30;99.90;;;;;;4960824;28;20193;-83
2022/07/27 00:58:31;;;;;;;13.50;7.67;;;17.30;99.90;;;;;;4976917;28;20224;-82
2022/07/27 01:00:58;;;;;;;13.20;7.60;;;17.30;99.90;;;;;;4976644;28;20189;-85
2022/07/27 01:03:26;;;;;;;12.43;8.20;;;17.40;99.90;;;;;;4993814;28;20197;-82
2022/07/27 01:05:57;;;;;;;13.17;7.43;;;17.30;99.90;;;;;;4993864;28;20247;-83
2022/07/27 01:08:28;;;;;;;11.90;6.73;;;17.40;99.90;;;;;;4993787;28;20201;-82
2022/07/27 01:10:56;;;;;;;9.47;6.50;;;17.40;99.90;;;;;;4976742;28;20642;-83
2022/07/27 01:13:25;;;;;;;12.03;5.47;;;17.50;99.90;;;;;;4976456;28;20311;-83
2022/07/27 01:15:55;;;;;;;9.07;5.33;;;17.40;99.90;;;;;;4976253;28;20224;-83
2022/07/27 01:18:29;;;;;;;12.37;5.73;;;17.40;99.90;;;;;;4976480;28;20271;-83
2022/07/27 01:20:56;;;;;;;8.90;5.43;;;17.50;99.90;;;;;;4993655;28;20280;-83
2022/07/27 01:23:24;;;;;;;7.63;5.30;;;17.50;99.90;;;;;;4976259;28;20233;-83
2022/07/27 01:25:51;;;;;;;9.03;5.00;;;17.50;99.90;;;;;;4976184;28;20562;-82
2022/07/27 01:28:18;;;;;;;10.13;5.20;;;17.60;99.90;;;;;;4994170;28;20227;-83
2022/07/27 01:30:45;;;;;;;8.73;4.93;;;17.50;99.90;;;;;;4958439;28;20219;-83
2022/07/27 01:33:15;;;;;;;7.40;5.27;;;17.40;99.90;;;;;;4975958;28;20228;-83
2022/07/27 01:35:42;;;;;;;7.17;5.00;;;17.40;99.90;;;;;;4976350;28;20220;-83
2022/07/27 01:38:11;;;;;;;7.07;5.40;;;17.40;99.90;;;;;;4976121;28;20200;-83
2022/07/27 01:40:38;;;;;;;8.27;4.70;;;17.40;99.90;;;;;;4960017;28;20197;-83
2022/07/27 01:43:05;;;;;;;5.87;4.57;;;17.40;99.90;;;;;;4993316;28;20259;-84
2022/07/27 01:45:32;;;;;;;10.27;5.00;;;17.40;99.90;;;;;;4993414;28;20191;-83
2022/07/27 01:48:00;;;;;;;7.43;4.60;;;17.20;99.90;;;;;;4976376;28;20200;-83
2022/07/27 01:50:29;;;;;;;7.37;4.50;;;17.30;99.90;;;;;;4976092;28;20205;-84
2022/07/27 01:52:57;;;;;;;6.17;4.90;;;17.20;99.90;;;;;;4976111;28;20561;-84
2022/07/27 01:55:24;;;;;;;6.93;5.00;;;17.20;99.90;;;;;;4993359;28;20226;-84
2022/07/27 01:57:51;;;;;;;10.57;5.20;;;17.30;99.90;;;;;;4979123;28;20207;-83
2022/07/27 02:00:18;;;;;;;7.33;4.63;;;17.30;99.90;;;;;;4997334;28;20231;-83
2022/07/27 02:02:45;;;;;;;6.67;4.50;;;17.30;99.90;;;;;;4979727;28;20211;-83
2022/07/27 02:05:12;;;;;;;5.97;4.67;;;17.20;99.90;;;;;;4980174;28;20197;-83
2022/07/27 02:07:40;;;;;;;5.83;4.43;;;17.30;99.90;;;;;;4979840;28;20243;-83
2022/07/27 02:10:08;;;;;;;8.77;4.63;;;17.30;99.90;;;;;;4979786;28;20286;-82
2022/07/27 02:12:36;;;;;;;9.53;4.90;;;17.20;99.90;;;;;;4996961;28;20224;-82
2022/07/27 02:15:13;;;;;;;7.13;4.03;;;17.20;99.90;;;;;;4979641;28;20646;-82
2022/07/27 02:17:43;;;;;;;5.80;4.27;;;17.10;99.90;;;;;;4979684;28;20193;-82
2022/07/27 02:20:13;;;;;;;5.33;3.77;;;17.20;99.90;;;;;;4997355;28;20681;-83
2022/07/27 02:22:40;;;;;;;7.43;4.40;;;17.20;99.90;;;;;;4963723;28;20205;-82
2022/07/27 02:25:09;;;;;;;5.63;4.20;;;17.00;99.90;;;;;;4979244;28;20208;-82
2022/07/27 02:27:36;;;;;;;9.13;4.47;;;17.00;99.90;;;;;;4996936;28;20227;-81
2022/07/27 02:30:04;;;;;;;6.27;3.80;;;16.90;99.90;;;;;;4979593;28;20211;-82
2022/07/27 02:32:31;;;;;;;6.13;3.93;;;16.90;99.90;;;;;;4979267;28;20544;-81
2022/07/27 02:34:58;;;;;;;7.03;4.10;;;16.90;99.90;;;;;;4997096;28;20197;-83
2022/07/27 02:37:28;;;;;;;6.63;4.10;;;16.80;99.90;;;;;;4979243;28;20197;-82
2022/07/27 02:39:55;;;;;;;5.90;4.00;;;16.90;99.90;;;;;;4996483;28;20722;-82
2022/07/27 02:42:22;;;;;;;5.60;3.80;;;17.00;99.90;;;;;;4979039;28;20644;-81
2022/07/27 02:44:49;;;;;;;8.17;3.80;;;16.80;99.90;;;;;;4979286;28;20205;-82
2022/07/27 02:47:17;;;;;;;7.20;3.70;;;17.00;99.90;;;;;;4996424;28;20587;-83
2022/07/27 02:49:43;;;;;;;6.23;4.03;;;16.90;99.90;;;;;;4979436;28;20639;-85
2022/07/27 02:52:10;;;;;;;6.00;3.77;;;16.90;99.90;;;;;;4979068;28;20203;-83
2022/07/27 02:54:37;;;;;;;6.50;3.40;;;16.90;99.90;;;;;;4978903;28;20315;-83
2022/07/27 02:57:04;;;;;;;6.17;3.57;;;16.90;99.90;;;;;;4978915;28;20209;-84
2022/07/27 02:59:31;;;;;;;6.23;3.30;;;16.90;99.90;;;;;;4979211;28;20205;-84
2022/07/27 03:01:58;;;;;;;4.83;3.50;;;16.90;99.90;;;;;;4978860;28;20209;-84
2022/07/27 03:04:25;;;;;;;11.70;3.70;;;16.90;99.90;;;;;;4979288;28;20207;-85
2022/07/27 03:06:52;;;;;;;6.43;3.00;;;16.90;99.90;;;;;;4978674;28;20201;-86
2022/07/27 03:09:20;;;;;;;8.20;3.03;;;16.90;99.90;;;;;;4978522;28;20205;-83
2022/07/27 03:11:59;;;;;;;5.17;2.70;;;16.90;99.90;;;;;;4979550;28;20228;-84
2022/07/27 03:14:27;;;;;;;5.90;3.00;;;16.90;99.90;;;;;;4996132;28;20678;-84
2022/07/27 03:16:54;;;;;;;3.47;2.60;;;17.00;99.90;;;;;;4978929;28;20201;-84
2022/07/27 03:19:21;;;;;;;4.00;2.77;;;17.00;99.90;;;;;;4978448;28;20319;-84
2022/07/27 03:21:53;;;;;;;4.57;2.70;;;16.90;99.90;;;;;;4978652;28;20196;-84
2022/07/27 03:24:20;;;;;;;3.67;2.47;;;16.90;99.90;;;;;;4996171;28;20197;-83
2022/07/27 03:26:47;;;;;;;6.57;2.93;;;16.90;99.90;;;;;;4996126;28;20291;-87
2022/07/27 03:29:14;;;;;;;4.00;2.80;;;17.00;99.90;;;;;;4978942;28;20201;-83
2022/07/27 03:31:43;;;;;;;5.20;2.83;;;17.00;99.90;;;;;;4978325;28;20205;-88
2022/07/27 03:34:10;;;;;;;5.70;2.87;;;16.90;99.90;;;;;;4978371;28;20315;-87
2022/07/27 03:36:37;;;;;;;7.43;3.30;;;16.80;99.90;;;;;;4978595;28;20200;-86
2022/07/27 03:39:04;;;;;;;5.00;3.03;;;16.70;99.90;;;;;;4978361;28;20495;-87
2022/07/27 03:41:32;;;;;;;5.93;3.37;;;16.90;99.90;;;;;;4962116;28;20189;-87
2022/07/27 03:43:58;;;;;;;5.70;3.20;;;16.90;99.90;;;;;;4978255;28;20211;-83
2022/07/27 03:46:25;;;;;;;7.47;3.20;;;16.90;99.90;;;;;;4995541;28;20263;-85
2022/07/27 03:48:52;;;;;;;5.97;3.17;;;16.80;99.90;;;;;;4995890;28;20193;-83
2022/07/27 03:51:20;;;;;;;7.90;2.80;;;16.70;99.90;;;;;;4977817;28;20205;-85
2022/07/27 03:53:48;;;;;;;4.87;2.90;;;16.70;99.90;;;;;;4977950;28;20227;-85
2022/07/27 03:56:18;;;;;;;4.13;2.90;;;16.80;99.90;;;;;;4995362;28;20196;-86
2022/07/27 03:58:45;;;;;;;4.23;2.57;;;16.70;99.90;;;;;;4977934;28;20201;-85
2022/07/27 04:01:12;;;;;;;6.07;2.63;;;16.80;99.90;;;;;;4977767;28;20185;-85
2022/07/27 04:03:39;;;;;;;4.10;2.70;;;16.70;99.90;;;;;;4977761;28;20189;-85
2022/07/27 04:06:10;;;;;;;5.30;2.90;;;16.70;99.90;;;;;;4977842;28;20204;-86
2022/07/27 04:08:37;;;;;;;3.57;2.30;;;16.70;99.90;;;;;;4977751;28;20644;-85
2022/07/27 04:11:05;;;;;;;6.63;2.63;;;16.70;99.90;;;;;;4977557;28;20292;-86
2022/07/27 04:13:33;;;;;;;3.83;2.00;;;16.80;99.90;;;;;;4995929;28;20213;-85
2022/07/27 04:16:04;;;;;;;4.50;2.20;;;16.80;99.90;;;;;;4977543;28;20558;-85
2022/07/27 04:18:31;;;;;;;3.07;1.97;;;16.80;99.90;;;;;;4976987;28;20228;-85
2022/07/27 04:21:00;;;;;;;5.43;2.10;;;16.70;99.90;;;;;;4976973;28;20215;-85
2022/07/27 04:23:27;;;;;;;3.67;2.23;;;16.70;99.90;;;;;;4977226;28;20200;-84
2022/07/27 04:25:54;;;;;;;4.33;2.00;;;16.80;99.90;;;;;;4977334;28;20737;-84
2022/07/27 04:28:21;;;;;;;6.80;2.30;;;16.80;99.90;;;;;;4961009;28;20646;-84
2022/07/27 04:30:48;;;;;;;3.57;1.90;;;16.80;99.90;;;;;;4977377;28;20200;-85
2022/07/27 04:33:16;;;;;;;3.57;1.83;;;16.80;99.90;;;;;;4994658;28;20213;-84
2022/07/27 04:35:43;;;;;;;3.23;1.73;;;16.90;99.90;;;;;;4977631;28;20209;-87
2022/07/27 04:38:10;;;;;;;2.70;1.60;;;17.00;99.90;;;;;;4977354;28;20227;-86
2022/07/27 04:40:37;;;;;;;4.30;1.67;;;17.10;99.90;;;;;;4977437;28;20209;-84
2022/07/27 04:43:05;;;;;;;4.13;1.93;;;17.10;99.90;;;;;;4977139;28;20288;-86
2022/07/27 04:45:33;;;;;;;4.33;1.70;;;17.10;99.90;;;;;;4976769;28;20287;-84
2022/07/27 04:48:06;;;;;;;3.13;1.70;;;17.00;99.90;;;;;;4976719;28;20224;-86
2022/07/27 04:50:41;;;;;;;4.83;1.70;;;17.10;99.90;;;;;;4976301;28;20204;-84
2022/07/27 04:53:12;;;;;;;3.23;1.47;;;17.10;99.90;;;;;;4976670;28;20212;-84
2022/07/27 04:55:44;;;;;;;6.17;1.80;;;17.20;99.90;;;;;;4976735;28;20685;-84
2022/07/27 04:58:12;;;;;;;2.90;1.27;;;17.00;99.90;;;;;;4977529;28;20213;-83
2022/07/27 05:00:39;;;;;;;8.87;2.20;;;16.90;99.90;;;;;;4976774;28;20215;-84
2022/07/27 05:03:07;;;;;;;2.83;1.50;;;16.90;99.90;;;;;;4976591;28;20227;-84
2022/07/27 05:05:34;;;;;;;3.53;1.53;;;16.90;99.90;;;;;;4976992;28;20295;-83
2022/07/27 05:08:01;;;;;;;2.33;1.50;;;17.00;99.90;;;;;;4993626;28;20642;-85
2022/07/27 05:10:28;;;;;;;5.67;1.60;;;17.00;99.90;;;;;;4976362;28;20240;-82
2022/07/27 05:12:55;;;;;;;7.73;1.70;;;17.00;99.90;;;;;;4976571;28;20201;-86
2022/07/27 05:15:22;;;;;;;4.03;1.43;;;17.00;99.90;;;;;;4976473;28;20213;-85
2022/07/27 05:17:51;;;;;;;6.23;1.80;;;17.10;99.90;;;;;;4993776;28;20228;-85
2022/07/27 05:20:19;;;;;;;5.63;1.37;;;17.20;99.90;;;;;;4976443;28;20271;-85
2022/07/27 05:22:46;;;;;;;4.00;1.80;;;17.30;99.90;;;;;;4976512;28;20201;-84
2022/07/27 05:25:13;;;;;;;5.80;1.40;;;17.30;99.90;;;;;;4976720;28;20207;-84
2022/07/27 05:27:40;;;;;;;4.60;1.40;;;17.40;99.90;;;;;;4976307;28;20204;-84
2022/07/27 05:30:22;;;;;;;5.53;1.40;;;17.40;99.90;;;;;;4976690;28;20665;-83
2022/07/27 05:32:49;;;;;;;2.57;1.27;;;17.30;99.90;;;;;;4976255;28;20295;-87
2022/07/27 05:35:17;;;;;;;6.60;1.70;;;17.40;99.90;;;;;;4976283;28;20220;-86
2022/07/27 05:37:45;;;;;;;3.67;1.40;;;17.40;99.90;;;;;;4976172;28;20205;-85
2022/07/27 05:40:12;;;;;;;4.50;1.40;;;17.40;99.90;;;;;;4976192;28;20201;-86
2022/07/27 05:42:42;;;;;;;3.17;1.20;;;17.50;99.90;;;;;;4976182;28;20642;-85
2022/07/27 05:45:11;;;;;;;3.53;1.10;;;17.60;99.90;;;;;;4975989;28;20223;-86
2022/07/27 05:47:38;;;;;;;2.87;1.10;;;17.60;99.90;;;;;;4976047;28;20728;-85
2022/07/27 05:50:06;;;;;;;5.77;1.50;;;17.70;99.90;;;;;;4976197;28;20189;-84
2022/07/27 05:52:33;;;;;;;6.43;1.47;;;17.80;99.90;;;;;;4993645;28;20193;-84
2022/07/27 05:55:00;;;;;;;3.07;1.37;;;17.80;99.90;;;;;;4975849;28;20283;-84
2022/07/27 05:57:27;;;;;;;4.97;1.50;;;17.80;99.90;;;;;;4976496;28;20663;-84
2022/07/27 05:59:57;;;;;;;5.37;1.10;;;17.80;99.90;;;;;;4976321;28;20307;-81
2022/07/27 06:02:24;;;;;;;1.53;1.03;;;18.00;99.90;;;;;;4975792;28;20287;-84
2022/07/27 06:04:54;;;;;;;2.70;1.10;;;17.90;99.90;;;;;;4993574;28;20231;-82
2022/07/27 06:10:41;;;;;;;5.33;1.67;;;18.10;99.90;;;;;;4974241;28;20661;-83
2022/07/27 06:13:13;;;;;;;6.53;1.13;;;18.20;99.90;;;;;;4973648;28;20682;-88
2022/07/27 06:15:40;;;;;;;4.33;1.40;;;18.10;99.90;;;;;;4975480;28;20247;-86
2022/07/27 06:18:13;;;;;;;6.77;1.30;;;18.20;99.90;;;;;;4975678;28;20217;-79
2022/07/27 06:20:41;;;;;;;3.17;0.93;;;18.20;99.90;;;;;;4975589;28;20243;-77
2022/07/27 06:23:09;;;;;;;3.43;1.03;;;18.30;99.90;;;;;;4975792;28;20205;-79
2022/07/27 06:25:36;;;;;;;4.37;1.30;;;18.30;99.90;;;;;;4975641;28;20295;-80
2022/07/27 06:28:04;;;;;;;4.70;1.67;;;18.20;99.90;;;;;;4975881;28;20201;-78
2022/07/27 06:30:32;;;;;;;4.03;1.20;;;18.30;99.90;;;;;;4977144;28;20268;-81
2022/07/27 06:32:59;;;;;;;3.20;1.10;;;18.40;99.90;;;;;;4975464;28;20197;-71
2022/07/27 06:35:26;;;;;;;6.20;1.27;;;18.40;99.90;;;;;;4993158;28;20228;-71
2022/07/27 06:37:53;;;;;;;4.43;1.10;;;18.30;99.90;;;;;;4975630;28;20287;-74
2022/07/27 06:40:20;;;;;;;4.80;1.30;;;18.30;99.90;;;;;;4975467;28;20215;-72
2022/07/27 06:42:47;;;;;;;3.63;1.07;;;18.40;99.90;;;;;;4976534;28;20526;-73
2022/07/27 06:45:14;;;;;;;5.47;1.73;;;18.60;99.90;;;;;;4979352;28;20196;-72
2022/07/27 06:47:41;;;;;;;5.67;1.10;;;18.70;99.90;;;;;;4978796;28;20686;-73
2022/07/27 06:50:17;;;;;;;4.20;1.20;;;18.70;99.90;;;;;;4996760;28;20623;-72
2022/07/27 06:52:43;;;;;;;2.47;1.00;;;18.90;99.90;;;;;;4978795;28;20196;-71
2022/07/27 06:55:11;;;;;;;4.53;0.93;;;18.90;99.90;;;;;;4978813;28;20648;-71
2022/07/27 06:57:38;;;;;;;4.17;1.20;;;18.80;99.90;;;;;;4996122;28;20201;-72
2022/07/27 07:00:06;;;;;;;5.53;1.20;;;18.90;99.90;;;;;;4978845;28;20201;-72
2022/07/27 07:02:32;;;;;;;6.13;1.50;;;19.00;99.90;;;;;;4978484;28;20193;-72
2022/07/27 07:04:59;;;;;;;5.60;1.80;;;19.00;99.90;;;;;;4979057;28;20197;-72
2022/07/27 07:07:26;;;;;;;4.03;1.20;;;19.00;99.90;;;;;;4996267;28;20195;-72
2022/07/27 07:09:53;;;;;;;4.60;1.20;;;19.00;99.90;;;;;;4978712;28;20201;-72
2022/07/27 07:12:20;;;;;;;4.33;1.13;;;19.00;99.90;;;;;;4978729;28;20200;-73
2022/07/27 07:14:47;;;;;;;4.60;1.57;;;19.00;99.90;;;;;;4978599;28;20312;-74
2022/07/27 07:17:14;;;;;;;3.10;1.20;;;19.10;99.90;;;;;;4978154;28;20228;-74
2022/07/27 07:19:40;;;;;;;5.40;2.90;;;19.20;99.90;;;;;;4978758;28;20226;-73
2022/07/27 07:22:07;;;;;;;3.73;1.90;;;19.30;99.90;;;;;;4978227;28;20235;-73
2022/07/27 07:24:34;;;;;;;5.33;2.10;;;19.40;99.90;;;;;;4978229;28;20193;-72
2022/07/27 07:27:02;;;;;;;5.37;2.43;;;19.50;99.90;;;;;;4978620;28;20193;-73
2022/07/27 07:29:28;;;;;;;8.10;2.00;;;19.50;99.90;;;;;;4978142;28;20660;-73
2022/07/27 07:31:55;;;;;;;5.43;1.93;;;19.60;99.90;;;;;;4995378;28;20622;-74
2022/07/27 07:34:23;;;;;;;7.40;2.23;;;19.60;99.90;;;;;;4978512;28;20255;-75
2022/07/27 07:36:49;;;;;;;6.03;2.30;;;19.80;99.90;;;;;;4978034;28;20657;-73
2022/07/27 07:39:16;;;;;;;5.20;2.10;;;19.80;99.90;;;;;;4978015;28;20296;-75
2022/07/27 07:41:43;;;;;;;3.77;2.43;;;19.80;99.90;;;;;;4977968;28;20197;-73
2022/07/27 07:44:10;;;;;;;4.80;2.30;;;20.00;99.90;;;;;;4962020;28;20682;-74
2022/07/27 07:46:37;;;;;;;4.63;2.27;;;20.00;99.90;;;;;;4978353;28;20232;-73
2022/07/27 07:49:10;;;;;;;4.83;2.27;;;20.10;99.90;;;;;;4978100;28;20197;-73
2022/07/27 07:51:37;;;;;;;5.10;2.50;;;20.30;99.90;;;;;;4977742;28;20674;-73
2022/07/27 07:54:04;;;;;;;3.73;2.10;;;20.30;99.90;;;;;;4994411;28;20721;-74
2022/07/27 07:56:31;;;;;;;6.87;2.63;;;20.30;99.90;;;;;;4977991;28;20201;-73
2022/07/27 07:58:58;;;;;;;4.17;2.10;;;20.40;99.90;;;;;;4977762;28;20211;-73
2022/07/27 08:01:25;;;;;;;6.47;2.10;;;20.40;99.90;;;;;;4977702;28;20197;-73
2022/07/27 08:03:52;;;;;;;5.30;1.77;;;20.60;99.90;;;;;;4977715;28;20289;-73
2022/07/27 08:06:19;;;;;;;3.93;2.10;;;20.60;99.90;;;;;;4995316;28;20197;-72
2022/07/27 08:08:46;;;;;;;4.23;2.20;;;20.60;99.90;;;;;;4977448;28;20216;-74
2022/07/27 08:11:13;;;;;;;5.27;2.07;;;20.70;99.90;;;;;;4977536;28;20227;-74
2022/07/27 08:13:41;;;;;;;4.70;1.90;;;20.80;99.90;;;;;;4977147;28;20200;-73
2022/07/27 08:16:08;;;;;;;4.07;1.93;;;20.70;99.90;;;;;;4977209;28;20236;-75
2022/07/27 08:18:35;;;;;;;5.33;1.90;;;20.60;99.90;;;;;;4977221;28;20671;-73
2022/07/27 08:21:02;;;;;;;4.30;1.90;;;20.40;99.90;;;;;;4977415;28;20694;-76
2022/07/27 08:23:30;;;;;;;5.63;2.00;;;20.40;99.90;;;;;;4977431;28;20204;-73
2022/07/27 08:25:58;;;;;;;3.73;1.70;;;21.30;99.90;;;;;;4994634;28;20690;-75
2022/07/27 08:28:31;;;;;;;5.67;1.80;;;22.20;99.90;;;;;;4977137;28;20247;-73
2022/07/27 08:31:03;;;;;;;5.93;2.05;;;22.90;99.90;;;;;;4977181;28;20225;-72
2022/07/27 08:33:40;;;;;;;4.28;1.90;;;23.90;99.90;;;;;;4976978;28;20204;-73
2022/07/27 08:36:07;;;;;;;3.08;1.67;;;24.50;99.90;;;;;;4977105;28;20228;-72
2022/07/27 08:38:34;;;;;;;6.38;2.03;;;25.00;99.90;;;;;;4977547;28;20292;-72
2022/07/27 08:41:02;;;;;;;5.43;1.80;;;25.10;99.90;;;;;;4976679;28;20295;-72
2022/07/27 08:43:31;;;;;;;3.33;1.70;;;25.10;99.90;;;;;;4976730;28;20224;-73
2022/07/27 08:45:59;;;;;;;3.60;1.60;;;25.60;99.90;;;;;;4976875;28;20283;-74
2022/07/27 08:48:29;;;;;;;5.28;1.60;;;26.00;99.80;;;;;;4977048;28;20193;-73
2022/07/27 08:50:57;;;;;;;4.55;1.70;;;25.70;98.50;;;;;;4977036;28;20197;-73
2022/07/27 08:53:31;;;;;;;4.03;1.80;;;26.00;98.80;;;;;;4976762;28;20288;-73
2022/07/27 08:56:18;;;;;;;2.45;1.50;;;26.40;97.30;;;;;;4976719;28;20668;-73
2022/07/27 08:58:45;;;;;;;4.78;1.83;;;26.40;95.70;;;;;;4994276;28;20185;-72
2022/07/27 09:01:13;;;;;;;4.63;1.60;;;26.00;95.40;;;;;;4977083;28;20192;-74
2022/07/27 09:03:40;;;;;;;4.68;1.60;;;25.40;96.30;;;;;;4976862;28;20289;-73
2022/07/27 09:06:07;;;;;;;5.40;1.60;;;25.20;95.80;;;;;;4976353;28;20203;-74
2022/07/27 09:08:37;;;;;;;4.20;1.50;;;25.10;97.00;;;;;;4976333;28;20207;-73
2022/07/27 09:11:14;;;;;;;4.95;1.65;;;25.80;98.50;;;;;;4976580;28;20292;-72
2022/07/27 09:13:41;;;;;;;5.38;1.70;;;26.30;96.70;;;;;;4976221;28;20239;-72
2022/07/27 09:16:10;;;;;;;3.25;1.50;;;25.60;95.50;;;;;;4993778;28;20325;-73
2022/07/27 09:18:47;;;;;;;4.35;1.60;;;25.70;96.70;;;;;;4974947;28;20224;-72
2022/07/27 09:21:19;;;;;;;6.30;1.65;;;25.60;96.80;;;;;;4976418;28;20185;-72
2022/07/27 09:23:52;;;;;;;3.58;1.70;;;25.40;95.10;;;;;;4976296;28;20219;-72
2022/07/27 09:26:23;;;;;;;4.30;1.45;;;25.40;95.50;;;;;;4993640;28;20595;-73
2022/07/27 09:29:11;;;;;;;4.90;1.50;;;25.40;95.70;;;;;;4976487;28;20201;-73
2022/07/27 09:31:49;;;;;;;4.38;1.70;;;25.70;95.50;;;;;;4993948;28;20280;-71
2022/07/27 09:34:31;;;;;;;3.55;1.40;;;26.30;94.60;;;;;;4976580;28;20239;-73
2022/07/27 09:36:59;;;;;;;3.05;1.80;;;26.10;94.40;;;;;;4976223;28;20196;-73
2022/07/27 09:39:31;;;;;;;4.53;1.48;;;25.50;94.30;;;;;;4976274;28;20192;-72
2022/07/27 09:42:00;;;;;;;5.03;1.75;;;24.40;94.70;;;;;;4975944;28;20220;-72
2022/07/27 09:44:40;;;;;;;5.00;1.60;;;24.00;97.20;;;;;;4975877;28;20197;-73
2022/07/27 09:47:19;;;;;;;5.20;1.33;;;24.30;97.80;;;;;;4972722;28;20231;-73
2022/07/27 09:49:46;;;;;;;2.78;1.50;;;24.90;97.40;;;;;;4973158;28;20680;-73
2022/07/27 09:52:26;;;;;;;3.17;1.63;;;25.20;99.10;;;;;;4972640;28;20571;-72
2022/07/27 09:54:53;;;;;;;5.00;1.77;;;24.90;97.60;;;;;;4972594;28;20716;-73
2022/07/27 09:57:21;;;;;;;5.00;1.50;;;25.20;97.90;;;;;;4974061;28;20578;-72
2022/07/27 10:00:06;;;;;;;5.20;1.40;;;25.70;97.40;;;;;;4972920;28;20228;-72
2022/07/27 10:02:34;;;;;;;3.15;1.38;;;25.80;95.50;;;;;;4972744;28;20248;-72
2022/07/27 10:05:01;;;;;;;5.20;1.60;;;25.90;96.40;;;;;;4972843;28;20658;-72
2022/07/27 10:07:28;;;;;;;4.00;1.25;;;25.80;95.00;;;;;;4972500;28;20281;-72
2022/07/27 10:09:56;;;;;;;3.40;1.27;;;26.40;96.10;;;;;;4972753;28;20189;-72
2022/07/27 10:12:23;;;;;;;4.50;1.52;;;26.10;94.40;;;;;;4972613;28;20292;-72
2022/07/27 10:14:50;;;;;;;4.50;1.50;;;26.40;95.10;;;;;;4973209;28;20225;-73
2022/07/27 10:17:18;;;;;;;3.60;1.50;;;26.40;94.90;;;;;;4974832;28;20241;-74
2022/07/27 10:19:49;;;;;;;5.25;2.03;;;26.80;93.50;;;;;;4976869;28;20221;-73
2022/07/27 10:22:39;;;;;;;4.22;1.52;;;26.80;93.40;;;;;;4975958;28;20678;-73
2022/07/27 10:25:07;;;;;;;5.13;1.55;;;26.50;94.00;;;;;;4977437;28;20193;-73
2022/07/27 10:27:34;;;;;;;12.77;1.90;;;26.00;94.60;;;;;;4976187;28;20666;-73
2022/07/27 10:30:04;;;;;;;2.95;1.50;;;25.70;95.00;;;;;;4976281;28;20292;-73
2022/07/27 10:32:32;;;;;;;5.55;1.40;;;25.80;96.30;;;;;;4975797;28;20193;-74
2022/07/27 10:35:00;;;;;;;4.05;1.88;;;25.70;94.20;;;;;;4975675;28;20235;-73
2022/07/27 10:37:33;;;;;;;3.00;1.45;;;25.70;95.40;;;;;;4975986;28;20201;-73
2022/07/27 10:40:33;;;;;;;3.13;1.48;;;25.60;94.90;;;;;;4977159;28;20194;-71
2022/07/27 10:43:20;;;;;;;4.90;1.58;;;25.90;94.60;;;;;;4976213;28;20212;-74
2022/07/27 10:45:50;;;;;;;4.03;1.60;;;26.20;94.90;;;;;;4978558;28;20202;-74
2022/07/27 10:48:41;;;;;;;5.82;1.88;;;26.10;94.20;;;;;;4979351;28;20255;-73
2022/07/27 10:51:15;;;;;;;3.20;1.73;;;24.80;95.20;;;;;;4978902;28;20296;-73
2022/07/27 10:53:44;;;;;;;3.03;1.77;;;25.40;96.10;;;;;;4978832;28;20252;-74
2022/07/27 10:56:47;;;;;;;2.63;1.50;;;25.60;94.80;;;;;;4978627;28;20236;-74
2022/07/27 10:59:34;;;;;;;3.25;1.63;;;25.10;95.80;;;;;;4979203;28;20291;-74
2022/07/27 11:02:37;;;;;;;2.80;1.67;;;25.00;96.30;;;;;;4996049;28;20216;-72
2022/07/27 11:05:04;;;;;;;3.47;1.70;;;25.60;94.90;;;;;;4996138;28;20189;-72
2022/07/27 11:07:32;;;;;;;4.53;1.80;;;25.10;95.90;;;;;;4978638;28;20200;-72
2022/07/27 11:10:11;;;;;;;3.42;1.90;;;25.00;96.00;;;;;;4978964;28;20201;-72
2022/07/27 11:12:39;;;;;;;4.22;1.80;;;24.90;97.00;;;;;;4978227;28;20287;-72
2022/07/27 11:15:06;;;;;;;6.65;2.22;;;24.40;96.40;;;;;;4978827;28;20224;-72
2022/07/27 11:17:34;;;;;;;6.22;2.08;;;24.30;97.90;;;;;;4979284;28;20204;-71
2022/07/27 11:20:22;;;;;;;4.95;2.20;;;24.90;98.40;;;;;;4995804;28;20559;-72
2022/07/27 11:22:51;;;;;;;7.72;2.35;;;25.80;96.40;;;;;;4978265;28;20197;-72
2022/07/27 11:25:38;;;;;;;5.07;2.30;;;26.90;95.20;;;;;;4995958;28;20197;-73
2022/07/27 11:28:08;;;;;;;3.40;2.40;;;27.10;93.00;;;;;;4978379;28;20205;-72
2022/07/27 11:30:35;;;;;;;4.47;2.28;;;26.70;93.20;;;;;;4978328;28;20201;-72
2022/07/27 11:33:03;;;;;;;4.60;2.00;;;26.20;92.70;;;;;;4978190;28;20538;-73
2022/07/27 11:35:30;;;;;;;3.63;1.73;;;25.80;92.90;;;;;;4978511;28;20312;-73
2022/07/27 11:38:03;;;;;;;4.28;1.83;;;26.40;91.90;;;;;;4978202;28;20193;-72
2022/07/27 11:40:45;;;;;;;2.60;1.70;;;25.50;91.80;;;;;;4978111;28;20193;-72
2022/07/27 11:43:37;;;;;;;2.33;1.63;;;24.90;93.70;;;;;;4995631;28;20605;-72
2022/07/27 11:46:23;;;;;;;4.30;2.00;;;24.50;94.60;;;;;;4977911;28;20299;-73
2022/07/27 11:48:52;;;;;;;6.50;2.30;;;24.90;95.10;;;;;;4995459;28;20205;-73
2022/07/27 11:51:37;;;;;;;3.70;1.70;;;25.00;94.80;;;;;;4995284;28;20193;-72
2022/07/27 11:54:10;;;;;;;4.13;1.40;;;25.80;93.50;;;;;;4977776;28;20227;-71
2022/07/27 11:56:42;;;;;;;3.30;1.63;;;26.00;92.70;;;;;;4977472;28;20229;-72
2022/07/27 11:59:13;;;;;;;3.03;1.35;;;26.30;92.30;;;;;;4978158;28;20205;-73
2022/07/27 12:01:50;;;;;;;2.50;1.33;;;25.70;92.50;;;;;;4977560;28;20215;-72
2022/07/27 12:04:22;;;;;;;2.92;1.20;;;25.80;92.70;;;;;;4978115;28;20203;-73
2022/07/27 12:07:10;;;;;;;2.75;1.30;;;25.90;91.90;;;;;;4977769;28;20219;-72
2022/07/27 12:09:53;;;;;;;6.78;1.30;;;25.80;92.10;;;;;;4978131;28;20522;-72
2022/07/27 12:12:25;;;;;;;2.90;1.30;;;25.40;92.50;;;;;;4994708;28;20563;-72
2022/07/27 12:14:56;;;;;;;3.47;1.52;;;25.10;93.00;;;;;;4977425;28;20208;-72
2022/07/27 12:17:36;;;;;;;3.15;1.48;;;24.70;93.90;;;;;;4977433;28;20211;-72
2022/07/27 12:20:07;;;;;;;3.65;1.80;;;24.60;94.10;;;;;;4977191;28;20229;-73
2022/07/27 12:22:44;;;;;;;2.72;1.20;;;24.80;94.10;;;;;;4977215;28;20204;-73
2022/07/27 12:25:18;;;;;;;5.10;1.42;;;25.00;93.20;;;;;;4977148;28;20226;-73
2022/07/27 12:28:00;;;;;;;4.15;1.17;;;24.20;94.10;;;;;;4977187;28;20657;-73
2022/07/27 12:30:29;;;;;;;2.40;1.27;;;24.50;94.00;;;;;;4994418;28;20219;-72
2022/07/27 12:32:57;;;;;;;6.80;1.43;;;24.70;92.80;;;;;;4977289;28;20215;-73
2022/07/27 12:35:27;;;;;;;2.47;1.20;;;25.00;92.50;;;;;;4977349;28;20271;-73
2022/07/27 12:38:07;;;;;;;1.95;1.08;;;25.70;92.50;;;;;;4976930;28;20639;-73
2022/07/27 12:40:44;;;;;;;1.80;1.02;;;26.10;92.30;;;;;;4976615;28;20296;-73
2022/07/27 12:43:16;;;;;;;4.03;1.20;;;26.60;91.40;;;;;;4976887;28;20239;-73
2022/07/27 12:45:43;;;;;;;4.47;1.17;;;26.50;90.90;;;;;;4976982;28;20235;-73
2022/07/27 12:48:15;;;;;;;2.38;1.15;;;26.80;90.20;;;;;;4976963;28;20232;-74
2022/07/27 12:50:47;;;;;;;2.10;1.10;;;26.90;88.00;;;;;;4976946;28;20197;-73
2022/07/27 12:53:15;;;;;;;1.73;0.90;;;27.60;87.70;;;;;;4976732;28;20208;-73
2022/07/27 12:55:43;;;;;;;4.18;1.10;;;27.90;87.40;;;;;;4976387;28;20221;-73
2022/07/27 12:58:13;;;;;;;3.38;1.02;;;27.50;84.50;;;;;;4977191;28;20211;-73
2022/07/27 13:00:40;;;;;;;4.20;1.20;;;26.80;87.80;;;;;;4977038;28;20673;-73
2022/07/27 13:03:07;;;;;;;4.10;1.20;;;26.70;89.40;;;;;;4976564;28;20307;-72